Avisos AEMET Campiña SevillanaSin Avisos+ INFO
Sevilla, Andalucía, España
Langue: fr English Français Deutsch Italiano Português Español
 

Nearby METAR Reports

 

LEZL - Sevilla, Spain
Distance from station: ENE 8km
Mise à jour: 14/06/2024 08:30
clair
clair
 Wind from varies
Vent: varies 4 km/h
Température: 20°C
Point de rosée: 13°C
Humidité: 64%
Baromètre: 1015 hPa
Résumé: clair
Visibility: greater than 10 km
2024/06/14 06:30 LEZL 140630Z VRB02KT CAVOK 20/13 Q1015 NOSIG
LEMO - Morón, Spain
Distance from station: SE 43km
Mise à jour: 14/06/2024 08:30
clair
clair
 Wind from ESE
Vent: ESE 6 km/h
Température: 18°C
Point de rosée: 12°C
Humidité: 68%
Baromètre: 1015 hPa
Résumé: clair
Visibility: greater than 10 km
2024/06/14 06:30 LEMO 140630Z 11003KT CAVOK 18/12 Q1015 NOSIG
LEJR - Jeréz, Spain
Distance from station: S 71km
Mise à jour: 14/06/2024 08:30
clair
clair
 Wind from varies
Vent: varies 2 km/h
Température: 18°C
Point de rosée: 15°C
Humidité: 83%
Baromètre: 1015 hPa
Résumé: clair
Visibility: greater than 10 km
2024/06/14 06:30 LEJR 140630Z VRB01KT CAVOK 18/15 Q1015
 
LERT - Rota, Spain
Distance from station: SSO 89km
Mise à jour: 14/06/2024 08:30
clair
clair
 Wind from ENE
Vent: ENE 7 km/h
Température: 21°C
Point de rosée: 17°C
Humidité: 78%
Baromètre: 1015 hPa
Résumé: clair
Visibility: greater than 10 km
2024/06/14 06:30 LERT 140630Z 07004KT CAVOK 21/17 Q1015 NOSIG
LEMG - Málaga, Spain
Distance from station: ESE 157km
Mise à jour: 14/06/2024 08:30
clair
clair
 Wind from ONO
Vent: ONO 9 km/h
Température: 19°C
Point de rosée: 15°C
Humidité: 78%
Baromètre: 1016 hPa
Résumé: clair
Visibility: greater than 10 km
2024/06/14 06:30 LEMG 140630Z 30005KT CAVOK 19/15 Q1016 NOSIG
LEBA - Córdoba, Spain
Distance from station: ENE 115km
Mise à jour: 14/06/2024 08:30
clair
clair
 Wind from ESE
Vent: ESE 2 km/h
Température: 20°C
Point de rosée: 11°C
Humidité: 56%
Baromètre: 1016 hPa
Résumé: clair
Visibility: greater than 10 km
2024/06/14 06:30 LEBA 140630Z 11001KT CAVOK 20/11 Q1016
 
LEGR - Granada, Spain
Distance from station: E 198km
Mise à jour: 14/06/2024 08:30
clair
clair
 Wind from ONO
Vent: ONO 6 km/h
Température: 17°C
Point de rosée: 9°C
Humidité: 59%
Baromètre: 1018 hPa
Résumé: clair
Visibility: greater than 10 km
2024/06/14 06:30 LEGR 140630Z 29003KT 250V330 CAVOK 17/09 Q1018
LEAM - Almería, Spain
Distance from station: E 326km
Mise à jour: 14/06/2024 08:30
clair
clair
 Wind from N
Vent: N 7 km/h
Température: 24°C
Point de rosée: 14°C
Humidité: 54%
Baromètre: 1015 hPa
Résumé: clair
Visibility: greater than 10 km
2024/06/14 06:30 LEAM 140630Z 36004KT 300V030 CAVOK 24/14 Q1015
LEMD - Madrid/Barajas, Spain
Distance from station: NNE 402km
Mise à jour: 14/06/2024 08:30
clair
clair
 Wind from N
Vent: N 6 km/h
Température: 16°C
Point de rosée: 9°C
Humidité: 63%
Baromètre: 1017 hPa
Résumé: clair
Visibility: greater than 10 km
2024/06/14 06:30 LEMD 140630Z 36003KT 310V050 CAVOK 16/09 Q1017 NOSIG
 
LEVD - Valladolid, Spain
Distance from station: N 492km
Mise à jour: 14/06/2024 08:30
clair
clair
 Wind from SO
Vent: SO 11 km/h
Température: 15°C
Point de rosée: 9°C
Humidité: 68%
Baromètre: 1018 hPa
Résumé: clair
Visibility: greater than 10 km
2024/06/14 06:30 LEVD 140630Z 23006KT CAVOK 15/09 Q1018 NOSIG
LEBL - Barcelona, Spain
Distance from station: NE 816km
Mise à jour: 14/06/2024 08:30
nuageux
nuageux
 Wind from NNO
Vent: NNO 7 km/h
Température: 19°C
Point de rosée: 16°C
Humidité: 83%
Baromètre: 1016 hPa
Clouds: nuageux
Visibility: 10 km
Cloud details: partiellement nuageux 366 m
nuageux 762 m
2024/06/14 06:30 LEBL 140630Z 34004KT 250V030 9999 SCT012 BKN025 19/16 Q1016 NOSIG
LEVC - Valencia, Spain
Distance from station: ENE 535km
Mise à jour: 14/06/2024 08:30
clair
clair
 Wind from calm
Vent: calme
Température: 21°C
Point de rosée: 17°C
Humidité: 78%
Baromètre: 1016 hPa
Résumé: clair
Visibility: greater than 10 km
2024/06/14 06:30 LEVC 140630Z 00000KT CAVOK 21/17 Q1016 NOSIG